createdAt,value
2019-03-18T00:00:43.716Z,8.10
2019-03-18T00:03:12.300Z,5.80
2019-03-18T00:05:40.369Z,4.80
2019-03-18T00:08:08.413Z,9.30
2019-03-18T00:10:37.582Z,10.00
2019-03-18T00:13:06.666Z,5.23
2019-03-18T00:15:34.913Z,9.53
2019-03-18T00:18:03.007Z,5.10
2019-03-18T00:20:31.255Z,5.40
2019-03-18T00:22:59.398Z,6.20
2019-03-18T00:25:27.593Z,4.80
2019-03-18T00:27:55.960Z,9.30
2019-03-18T00:30:24.066Z,5.40
2019-03-18T00:32:52.201Z,5.20
2019-03-18T00:35:20.267Z,9.80
2019-03-18T00:37:48.341Z,6.33
2019-03-18T00:40:16.477Z,7.27
2019-03-18T00:42:44.670Z,5.90
2019-03-18T00:45:15.065Z,6.77
2019-03-18T00:47:43.095Z,5.73
2019-03-18T00:50:11.187Z,6.57
2019-03-18T00:52:39.241Z,8.07
2019-03-18T00:55:07.440Z,9.53
2019-03-18T00:57:35.518Z,4.70
2019-03-18T01:00:04.423Z,8.17
2019-03-18T01:02:32.565Z,9.97
2019-03-18T01:05:00.622Z,7.17
2019-03-18T01:07:28.739Z,9.90
2019-03-18T01:09:56.868Z,9.27
2019-03-18T01:12:24.950Z,6.43
2019-03-18T01:14:53.042Z,5.00
2019-03-18T01:17:21.140Z,5.77
2019-03-18T01:19:50.223Z,9.33
2019-03-18T01:22:18.356Z,6.33
2019-03-18T01:24:46.470Z,5.50
2019-03-18T01:27:14.579Z,4.83
2019-03-18T01:29:42.658Z,4.30
2019-03-18T01:32:10.747Z,2.40
2019-03-18T01:34:38.794Z,7.00
2019-03-18T01:37:06.838Z,5.00
2019-03-18T01:39:34.917Z,5.00
2019-03-18T01:42:02.951Z,4.47
2019-03-18T01:44:31.026Z,5.90
2019-03-18T01:46:59.068Z,3.07
2019-03-18T01:49:51.306Z,4.23
2019-03-18T01:52:19.378Z,3.50
2019-03-18T01:54:47.513Z,4.63
2019-03-18T01:57:15.599Z,4.53
2019-03-18T01:59:43.627Z,3.87
2019-03-18T02:02:11.694Z,5.47
2019-03-18T02:04:39.751Z,4.37
2019-03-18T02:07:07.825Z,5.83
2019-03-18T02:09:35.857Z,4.73
2019-03-18T02:12:03.919Z,5.50
2019-03-18T02:14:31.996Z,4.03
2019-03-18T02:17:00.053Z,6.93
2019-03-18T02:19:28.089Z,8.07
2019-03-18T02:21:56.109Z,5.43
2019-03-18T02:24:24.145Z,10.77
2019-03-18T02:26:52.202Z,6.77
2019-03-18T02:29:20.243Z,4.63
2019-03-18T02:31:48.307Z,9.40
2019-03-18T02:34:16.427Z,7.47
2019-03-18T02:36:44.511Z,7.47
2019-03-18T02:39:12.571Z,6.50
2019-03-18T02:41:40.647Z,5.13
2019-03-18T02:44:08.724Z,6.33
2019-03-18T02:46:36.885Z,6.60
2019-03-18T02:49:04.969Z,6.03
2019-03-18T02:51:33.046Z,5.83
2019-03-18T02:54:01.100Z,8.17
2019-03-18T02:56:29.152Z,8.40
2019-03-18T02:58:57.194Z,5.70
2019-03-18T03:01:25.272Z,5.13
2019-03-18T03:03:53.318Z,7.47
2019-03-18T03:06:21.377Z,6.50
2019-03-18T03:08:49.542Z,5.93
2019-03-18T03:11:17.650Z,5.00
2019-03-18T03:13:45.792Z,2.23
2019-03-18T03:16:25.489Z,7.27
2019-03-18T03:18:43.626Z,5.77
2019-03-18T03:21:11.651Z,5.53
2019-03-18T03:23:39.749Z,6.83
2019-03-18T03:26:07.874Z,5.63
2019-03-18T03:28:35.941Z,3.53
2019-03-18T03:31:04.047Z,4.80
2019-03-18T03:33:32.126Z,5.90
2019-03-18T03:36:00.198Z,6.33
2019-03-18T03:38:28.307Z,6.43
2019-03-18T03:44:05.409Z,5.67
2019-03-18T03:46:43.239Z,5.40
2019-03-18T03:49:03.198Z,6.50
2019-03-18T03:51:31.264Z,9.97
2019-03-18T03:53:59.313Z,7.17
2019-03-18T03:56:27.494Z,7.90
2019-03-18T03:58:55.581Z,6.53
2019-03-18T04:01:29.228Z,8.80
2019-03-18T04:03:55.614Z,4.97
2019-03-18T04:06:23.679Z,8.27
2019-03-18T04:08:51.693Z,8.93
2019-03-18T04:11:19.692Z,7.10
2019-03-18T04:13:47.780Z,7.63
2019-03-18T04:16:15.872Z,5.23
2019-03-18T04:18:44.029Z,6.50
2019-03-18T04:21:12.097Z,7.47
2019-03-18T04:23:40.141Z,6.03
2019-03-18T04:26:08.218Z,11.83
2019-03-18T04:28:36.251Z,5.53
2019-03-18T04:31:04.364Z,6.57
2019-03-18T04:33:32.428Z,7.63
2019-03-18T04:36:00.542Z,10.43
2019-03-18T04:38:28.578Z,9.67
2019-03-18T04:40:56.647Z,9.33
2019-03-18T04:43:24.734Z,9.13
2019-03-18T04:45:52.788Z,9.70
2019-03-18T04:48:20.882Z,10.83
2019-03-18T04:50:48.943Z,7.80
2019-03-18T04:53:16.992Z,11.50
2019-03-18T04:55:45.069Z,10.10
2019-03-18T04:58:13.128Z,9.63
2019-03-18T05:00:41.180Z,8.20
2019-03-18T05:03:09.225Z,8.87
2019-03-18T05:05:37.299Z,10.27
2019-03-18T05:08:05.373Z,13.07
2019-03-18T05:10:33.443Z,7.83
2019-03-18T05:13:04.625Z,5.57
2019-03-18T05:15:32.692Z,7.43
2019-03-18T05:18:00.732Z,7.37
2019-03-18T05:20:28.818Z,8.43
2019-03-18T05:22:56.878Z,10.57
2019-03-18T05:25:25.022Z,8.47
2019-03-18T05:27:53.048Z,5.97
2019-03-18T05:30:21.122Z,8.60
2019-03-18T05:32:49.182Z,8.33
2019-03-18T05:35:17.269Z,9.70
2019-03-18T05:37:45.351Z,13.30
2019-03-18T05:40:13.426Z,11.17
2019-03-18T05:42:41.557Z,16.30
2019-03-18T05:45:09.716Z,13.53
2019-03-18T05:47:39.551Z,13.63
2019-03-18T05:50:07.908Z,14.90
2019-03-18T05:52:35.989Z,13.47
2019-03-18T05:55:04.103Z,15.10
2019-03-18T05:57:32.172Z,14.53
2019-03-18T06:00:00.381Z,15.53
2019-03-18T06:02:28.618Z,20.57
2019-03-18T06:04:56.717Z,17.10
2019-03-18T06:07:24.941Z,22.07
2019-03-18T06:09:53.009Z,19.53
2019-03-18T06:12:21.095Z,19.43
2019-03-18T06:14:49.209Z,19.67
2019-03-18T06:17:17.300Z,18.07
2019-03-18T06:19:45.439Z,21.93
2019-03-18T06:25:22.651Z,18.13
2019-03-18T06:27:50.712Z,19.47
2019-03-18T06:30:18.759Z,20.00
2019-03-18T06:32:46.860Z,21.57
2019-03-18T06:35:14.980Z,20.33
2019-03-18T06:37:43.016Z,14.47
2019-03-18T06:40:11.125Z,20.43
2019-03-18T06:42:39.313Z,25.30
2019-03-18T06:45:07.675Z,19.10
2019-03-18T06:47:35.770Z,14.03
2019-03-18T06:50:04.029Z,23.67
2019-03-18T06:52:33.948Z,21.33
2019-03-18T06:58:11.697Z,27.57
2019-03-18T07:00:42.745Z,25.97
2019-03-18T07:03:14.675Z,17.83
2019-03-18T07:05:42.769Z,23.87
2019-03-18T07:08:10.913Z,21.93
2019-03-18T07:10:40.266Z,16.40
2019-03-18T07:16:19.981Z,21.83
2019-03-18T07:18:48.412Z,24.40
2019-03-18T07:21:16.666Z,17.40
2019-03-18T07:23:48.505Z,20.63
2019-03-18T07:26:21.333Z,23.53
2019-03-18T07:28:52.800Z,29.43
2019-03-18T07:31:20.931Z,21.80
2019-03-18T07:33:49.100Z,21.13
2019-03-18T07:36:27.723Z,21.90
2019-03-18T07:39:00.737Z,23.23
2019-03-18T07:41:28.839Z,20.87
2019-03-18T07:43:57.195Z,21.33
2019-03-18T07:49:18.050Z,22.60
2019-03-18T07:52:00.836Z,26.40
2019-03-18T07:54:37.624Z,18.30
2019-03-18T07:57:05.868Z,28.20
2019-03-18T07:59:33.877Z,25.97
2019-03-18T08:02:01.955Z,30.17
2019-03-18T08:04:37.136Z,22.07
2019-03-18T08:07:06.095Z,19.43
2019-03-18T08:09:34.202Z,26.07
2019-03-18T08:12:02.256Z,20.33
2019-03-18T08:14:30.305Z,17.50
2019-03-18T08:16:58.396Z,16.37
2019-03-18T08:19:26.473Z,20.40
2019-03-18T08:21:54.506Z,23.33
2019-03-18T08:24:22.534Z,17.37
2019-03-18T08:26:51.549Z,17.57
2019-03-18T08:29:19.671Z,19.70
2019-03-18T08:31:47.713Z,17.17
2019-03-18T08:34:15.776Z,24.40
2019-03-18T08:36:43.874Z,17.70
2019-03-18T08:39:11.934Z,14.87
2019-03-18T08:41:43.276Z,19.17
2019-03-18T08:44:11.488Z,24.63
2019-03-18T08:46:39.500Z,17.67
2019-03-18T08:49:07.589Z,17.07
2019-03-18T08:51:35.661Z,19.43
2019-03-18T08:54:03.742Z,13.90
2019-03-18T08:56:31.816Z,12.20
2019-03-18T08:58:59.883Z,12.13
2019-03-18T09:01:28.040Z,13.57
2019-03-18T09:03:56.104Z,12.83
2019-03-18T09:06:24.199Z,15.63
2019-03-18T09:08:52.290Z,13.90
2019-03-18T09:11:20.346Z,17.73
2019-03-18T09:13:48.461Z,15.87
2019-03-18T09:16:16.568Z,17.43
2019-03-18T09:18:44.737Z,22.67
2019-03-18T09:21:12.803Z,14.40
2019-03-18T09:23:40.896Z,20.87
2019-03-18T09:26:08.966Z,15.10
2019-03-18T09:28:37.084Z,13.13
2019-03-18T09:31:14.166Z,11.67
2019-03-18T09:33:42.424Z,11.83
2019-03-18T09:36:10.573Z,11.43
2019-03-18T09:38:38.655Z,13.40
2019-03-18T09:41:06.780Z,12.20
2019-03-18T09:43:34.849Z,11.23
2019-03-18T09:46:05.380Z,10.77
2019-03-18T09:48:33.442Z,10.67
2019-03-18T09:51:10.157Z,9.80
2019-03-18T09:53:31.313Z,11.87
2019-03-18T09:55:59.382Z,9.70
2019-03-18T09:58:28.598Z,10.67
2019-03-18T10:00:56.983Z,13.00
2019-03-18T10:03:25.299Z,17.00
2019-03-18T10:05:53.729Z,13.10
2019-03-18T10:08:31.229Z,13.47
2019-03-18T10:11:03.727Z,17.43
2019-03-18T10:13:37.886Z,21.33
2019-03-18T10:18:55.240Z,23.30
2019-03-18T10:21:23.349Z,19.63
2019-03-18T10:23:56.243Z,22.03
2019-03-18T10:26:24.284Z,28.93
2019-03-18T10:28:52.641Z,24.17
2019-03-18T10:31:27.559Z,21.33
2019-03-18T10:33:55.219Z,21.13
2019-03-18T10:36:23.275Z,22.97
2019-03-18T10:38:52.822Z,26.27
2019-03-18T10:41:21.174Z,17.73
2019-03-18T10:43:54.747Z,23.50
2019-03-18T10:46:29.789Z,20.97
2019-03-18T10:49:07.603Z,22.90
2019-03-18T10:51:48.170Z,20.63
2019-03-18T10:54:15.943Z,21.00
2019-03-18T10:57:01.204Z,21.63
2019-03-18T10:59:45.187Z,17.23
2019-03-18T11:03:04.714Z,21.13
2019-03-18T11:05:39.077Z,24.43
2019-03-18T11:08:28.263Z,20.13
2019-03-18T11:11:07.013Z,19.23
2019-03-18T11:13:41.410Z,20.70
2019-03-18T11:16:10.729Z,17.63
2019-03-18T11:19:26.496Z,24.93
2019-03-18T11:35:23.957Z,27.10
2019-03-18T11:38:57.774Z,20.07
2019-03-18T11:42:09.073Z,7.23
2019-03-18T11:45:30.989Z,5.13
2019-03-18T11:48:11.120Z,11.20
2019-03-18T11:54:25.150Z,10.37
2019-03-18T12:00:43.381Z,10.40
2019-03-18T12:13:19.324Z,13.43
2019-03-18T12:22:52.990Z,20.30
2019-03-18T13:55:02.463Z,19.10
2019-03-18T13:57:34.723Z,20.43
2019-03-18T14:00:10.449Z,20.93
2019-03-18T14:02:41.683Z,18.13
2019-03-18T14:05:09.658Z,25.70
2019-03-18T14:07:37.764Z,16.40
2019-03-18T14:10:12.925Z,24.10
2019-03-18T14:13:44.397Z,24.83
2019-03-18T14:17:00.908Z,14.43
2019-03-18T14:19:42.691Z,26.67
2019-03-18T14:22:31.848Z,25.23
2019-03-18T14:25:07.102Z,18.97
2019-03-18T14:27:35.051Z,19.73
2019-03-18T14:30:02.934Z,20.87
2019-03-18T14:32:30.833Z,20.23
2019-03-18T14:34:59.232Z,19.90
2019-03-18T14:37:28.339Z,13.60
2019-03-18T14:39:56.242Z,21.97
2019-03-18T14:42:25.959Z,16.23
2019-03-18T14:44:53.868Z,16.63
2019-03-18T14:47:21.842Z,15.27
2019-03-18T14:49:49.792Z,17.97
2019-03-18T14:52:17.792Z,26.47
2019-03-18T14:54:45.685Z,22.10
2019-03-18T14:57:13.669Z,19.27
2019-03-18T14:59:41.618Z,21.23
2019-03-18T15:02:09.615Z,19.40
2019-03-18T15:04:37.519Z,17.17
2019-03-18T15:07:05.438Z,20.50
2019-03-18T15:09:34.943Z,21.87
2019-03-18T15:12:03.803Z,24.97
2019-03-18T15:14:35.310Z,21.47
2019-03-18T15:17:04.848Z,23.53
2019-03-18T15:19:33.394Z,15.63
2019-03-18T15:22:02.947Z,21.13
2019-03-18T15:24:31.362Z,19.73
2019-03-18T15:27:01.168Z,17.87
2019-03-18T15:29:31.019Z,18.00
2019-03-18T15:32:00.842Z,15.80
2019-03-18T15:34:30.902Z,16.67
2019-03-18T15:37:00.885Z,13.27
2019-03-18T15:39:30.006Z,19.67
2019-03-18T15:41:58.556Z,12.73
2019-03-18T15:44:28.438Z,20.00
2019-03-18T15:46:58.306Z,18.97
2019-03-18T15:49:27.513Z,19.10
2019-03-18T15:51:56.393Z,22.97
2019-03-18T15:54:26.197Z,20.57
2019-03-18T15:56:55.435Z,18.23
2019-03-18T15:59:24.078Z,24.30
2019-03-18T16:01:53.008Z,20.40
2019-03-18T16:04:21.673Z,20.47
2019-03-18T16:06:50.057Z,20.80
2019-03-18T16:09:19.229Z,19.73
2019-03-18T16:11:47.196Z,21.33
2019-03-18T16:14:15.175Z,17.77
2019-03-18T16:16:43.203Z,21.77
2019-03-18T16:19:11.759Z,24.53
2019-03-18T16:21:40.281Z,21.83
2019-03-18T16:24:08.444Z,19.03
2019-03-18T16:26:36.372Z,27.20
2019-03-18T16:29:04.908Z,20.70
2019-03-18T16:31:32.843Z,25.50
2019-03-18T16:34:00.967Z,19.90
2019-03-18T16:36:28.986Z,22.00
2019-03-18T16:38:56.991Z,21.83
2019-03-18T16:41:24.962Z,24.73
2019-03-18T16:43:52.953Z,30.27
2019-03-18T16:46:20.940Z,23.90
2019-03-18T16:51:49.305Z,28.40
2019-03-18T16:54:21.967Z,20.30
2019-03-18T16:56:59.643Z,30.17
2019-03-18T16:59:35.415Z,27.87
2019-03-18T17:02:11.145Z,27.03
2019-03-18T17:04:56.747Z,23.47
2019-03-18T17:07:28.712Z,25.37
2019-03-18T17:10:02.408Z,24.47
2019-03-18T17:12:37.436Z,28.27
2019-03-18T17:15:12.683Z,23.20
2019-03-18T17:17:44.752Z,24.40
2019-03-18T17:20:17.859Z,25.50
2019-03-18T17:22:56.551Z,25.17
2019-03-18T17:25:34.953Z,21.90
2019-03-18T17:28:07.370Z,26.90
2019-03-18T17:30:44.583Z,26.30
2019-03-18T17:33:23.051Z,25.57
2019-03-18T17:36:22.341Z,17.30
2019-03-18T17:51:02.162Z,21.97
2019-03-18T17:52:15.524Z,23.23
2019-03-18T17:54:52.830Z,21.27
2019-03-18T17:57:24.953Z,20.23
2019-03-18T18:00:10.880Z,20.13
2019-03-18T18:02:44.670Z,23.73
2019-03-18T18:05:15.891Z,24.50
2019-03-18T18:07:48.190Z,24.00
2019-03-18T18:10:26.144Z,27.97
2019-03-18T18:18:40.613Z,30.83
2019-03-18T18:21:08.677Z,23.57
2019-03-18T18:23:44.129Z,28.93
2019-03-18T18:26:12.069Z,33.70
2019-03-18T18:28:44.739Z,22.33
2019-03-18T18:31:16.478Z,19.90
2019-03-18T18:33:47.840Z,21.70
2019-03-18T18:36:18.109Z,27.57
2019-03-18T18:38:46.075Z,24.83
2019-03-18T18:41:14.162Z,30.27
2019-03-18T18:43:47.981Z,13.33
2019-03-18T18:46:20.916Z,14.30
2019-03-18T18:48:58.921Z,17.90
2019-03-18T18:51:34.075Z,28.97
2019-03-18T18:54:02.059Z,22.17
2019-03-18T18:56:30.124Z,14.97
2019-03-18T18:58:58.157Z,15.70
2019-03-18T19:01:29.247Z,16.23
2019-03-18T19:03:58.821Z,14.00
2019-03-18T19:06:26.801Z,13.70
2019-03-18T19:09:09.693Z,18.93
2019-03-18T19:11:37.685Z,13.57
2019-03-18T19:14:05.740Z,20.50
2019-03-18T19:16:33.898Z,13.70
2019-03-18T19:19:01.891Z,18.27
2019-03-18T19:21:29.810Z,23.43
2019-03-18T19:23:57.822Z,16.53
2019-03-18T19:26:25.787Z,18.27
2019-03-18T19:28:53.816Z,19.87
2019-03-18T19:31:21.852Z,21.27
2019-03-18T19:33:49.930Z,18.90
2019-03-18T19:36:18.020Z,13.77
2019-03-18T19:38:46.029Z,17.27
2019-03-18T19:41:14.034Z,17.97
2019-03-18T19:43:42.073Z,14.80
2019-03-18T19:46:10.102Z,18.00
2019-03-18T19:48:38.520Z,25.20
2019-03-18T19:51:06.988Z,17.47
2019-03-18T19:53:35.028Z,14.33
2019-03-18T19:56:03.577Z,22.20
2019-03-18T19:58:31.729Z,17.60
2019-03-18T20:00:59.843Z,17.73
2019-03-18T20:03:28.295Z,17.70
2019-03-18T20:05:56.414Z,22.70
2019-03-18T20:08:24.567Z,25.57
2019-03-18T20:10:52.719Z,22.70
2019-03-18T20:13:21.560Z,17.47
2019-03-18T20:15:52.224Z,18.77
2019-03-18T20:18:20.585Z,22.03
2019-03-18T20:20:50.894Z,16.13
2019-03-18T20:26:30.818Z,20.83
2019-03-18T20:29:18.739Z,17.90
2019-03-18T20:32:05.319Z,22.87
2019-03-18T20:34:57.128Z,17.60
2019-03-18T20:37:37.633Z,14.83
2019-03-18T20:40:09.754Z,17.67
2019-03-18T20:42:41.118Z,19.27
2019-03-18T20:45:11.464Z,22.07
2019-03-18T20:47:44.583Z,21.00
2019-03-18T20:50:16.955Z,18.60
2019-03-18T20:52:44.955Z,16.13
2019-03-18T20:55:21.550Z,18.93
2019-03-18T20:58:03.759Z,17.57
2019-03-18T21:00:32.113Z,18.33
2019-03-18T21:03:00.457Z,20.13
2019-03-18T21:05:28.622Z,22.67
2019-03-18T21:08:03.660Z,17.80
2019-03-18T21:10:31.866Z,22.40
2019-03-18T21:12:59.939Z,22.83
2019-03-18T21:15:34.793Z,18.33
2019-03-18T21:18:11.139Z,14.27
2019-03-18T21:20:44.020Z,14.33
2019-03-18T21:23:17.825Z,11.30
2019-03-18T21:25:59.404Z,18.40
2019-03-18T21:28:41.237Z,16.07
2019-03-18T21:34:24.543Z,22.43
2019-03-18T21:39:36.482Z,16.37
2019-03-18T21:42:04.668Z,25.00
2019-03-18T21:44:32.703Z,20.30
2019-03-18T21:47:00.820Z,23.93
2019-03-18T21:49:29.887Z,22.90
2019-03-18T21:51:57.875Z,18.90
2019-03-18T21:54:33.643Z,23.57
2019-03-18T21:56:55.563Z,17.47
2019-03-18T21:59:23.560Z,22.40
2019-03-18T22:01:51.538Z,22.47
2019-03-18T22:04:19.566Z,21.90
2019-03-18T22:06:47.591Z,15.10
2019-03-18T22:09:15.586Z,19.60
2019-03-18T22:11:49.238Z,13.63
2019-03-18T22:14:17.341Z,18.20
2019-03-18T22:16:45.375Z,17.80
2019-03-18T22:19:15.737Z,19.07
2019-03-18T22:21:42.950Z,15.30
2019-03-18T22:24:10.950Z,13.60
2019-03-18T22:26:38.948Z,18.20
2019-03-18T22:29:07.691Z,17.93
2019-03-18T22:32:25.950Z,13.83
2019-03-18T22:35:14.677Z,14.07
2019-03-18T22:37:45.471Z,17.13
2019-03-18T22:40:18.274Z,17.93
2019-03-18T22:42:58.292Z,18.57
2019-03-18T22:45:29.507Z,18.83
2019-03-18T22:48:22.852Z,20.33
2019-03-18T22:50:50.825Z,20.00
2019-03-18T22:53:31.482Z,21.50
2019-03-18T22:55:55.770Z,24.83
2019-03-18T23:00:06.711Z,20.93
2019-03-18T23:01:07.689Z,21.53
2019-03-18T23:03:38.241Z,18.27
2019-03-18T23:06:14.764Z,18.67
2019-03-18T23:08:42.729Z,20.77
2019-03-18T23:11:10.673Z,20.53
2019-03-18T23:13:38.621Z,19.30
2019-03-18T23:16:06.590Z,19.30
2019-03-18T23:18:34.470Z,20.70
2019-03-18T23:21:02.752Z,24.20
2019-03-18T23:23:30.751Z,20.47
2019-03-18T23:25:58.689Z,20.93
2019-03-18T23:28:26.649Z,18.20
2019-03-18T23:30:54.642Z,23.93
2019-03-18T23:33:22.743Z,16.40
2019-03-18T23:35:50.681Z,24.60
2019-03-18T23:38:18.636Z,16.27
2019-03-18T23:40:47.720Z,21.33
2019-03-18T23:43:15.673Z,22.53
2019-03-18T23:45:43.670Z,21.27
2019-03-18T23:48:11.597Z,17.27
2019-03-18T23:50:39.520Z,18.00
2019-03-18T23:53:07.406Z,16.13
2019-03-18T23:55:35.352Z,14.97
2019-03-18T23:58:03.244Z,14.50
